Lake Wildwood, Illinois
Current Conditions -  °F | °C
As of 7:15 AM on Monday 22 Dec 2014 (Local Time) from KC75 Reporting Station
Overcast Overcast  
Wind Chill: 27°   Ceiling: 4400
Heat Index: 34°   Visibility: 7mi
Dew Point: 29°   Wind: 8mph
Humidity: 84%   Direction: 110°ESE
Pressure: 29.84"   Gusts: NA
Location:  41.1222°N, 89.2433°W
Report Text: KC75 221315Z AUTO 11007KT 7SM OVC044 01/M01 A2984 RMK AO2 T00111014
Loading
Personal Weather Stations






























Interactive Weather Map New forecast layout! Learn more

10-Day Weather Forecast

Advertisements
Track Severe Weather on mobile